Jervis Bay, New South Wales

11:40 PM AEST on August 29, 2015 (GMT +1000)
Callala Bay headland area | | Change Station
CLOSE
Current Station
Personal Weather Station
Location: Callala Bay, NSW
Elevation: 30 ft
Nearby Weather Stations

Elev 30 ft 35.01 °S, 150.72 °E | Updated 4 minutes ago

Clear
Clear
48.0 °F
Feels Like 48 °F
N
0.7
Wind Variable Wind from West
Gusts 5.4 mph

Today
High -- | Low -- °F
--% Chance of Precip.
Yesterday
High -- | Low -- °F
Precip. -- in
6:21 AM 5:35 PM
Full, 100% visible
Pressure 30.12 in
Visibility 6.2 miles
Clouds
Windchill 48 °F
Dew Point 24 °F
Humidity 39%
Rainfall in
Snow Depth Not available.
UV Not available.
Pollen Not available.
Air Quality Not available.
Flu Activity Not available.
METAR YSNW 291300Z AUTO 31010KT 9999 // NCD 08/02 Q1020
Pressure 30.12 in
Visibility 6.2 miles
Clouds
Windchill 48 °F
Dew Point 24 °F
Humidity 39%
Rainfall in
Snow Depth Not available.
UV Not available.
Pollen Not available.
Air Quality Not available.
Flu Activity Not available.
METAR YSNW 291300Z AUTO 31010KT 9999 // NCD 08/02 Q1020

10-Day Weather Forecast

×

Almanac

Astronomy

Aug. 29, 2015 Rise Set
Actual Time
Civil Twilight
Nautical Twilight
Astronomical Twilight
Moon
Length of Visible Light
Length of Day
Tomorrow will be .
, % of the Moon is Illuminated

Today's Extremes

Country Highs Country Lows

Community

WunderPhotos

Upload Photos

1,850,686 photos uploaded!

WunderBlogs® & News

Nearby

Air Quality

  Air Quality AQ Index Pollutant
Not available.

Snow Depth

Station Depth Elevation

Earthquake Activity

City Distance Mag. Time & Date
Minimum magnitude displayed is 2.5.

Coastal Water Temperatures

Place Temperature

Stations

Nearby Weather Stations

Station Location Temp. Windchill Dew Point Humidity Wind Precip. Elev Updated Type